createdAt,value
2017-01-25T19:30:55.922Z,0
2017-01-25T19:31:36.442Z,0
2017-01-25T19:32:16.961Z,0
2017-01-25T19:32:57.477Z,0
2017-01-25T19:33:37.997Z,0
2017-01-25T20:08:53.090Z,968.63
2017-01-25T20:09:33.656Z,968.67
2017-01-25T20:10:14.218Z,968.69
2017-01-25T20:10:54.788Z,968.73
2017-01-25T20:11:35.347Z,968.65
2017-01-25T20:12:15.920Z,968.63
2017-01-25T20:12:56.483Z,968.67
2017-01-25T20:13:37.043Z,968.63
2017-01-25T20:14:17.601Z,968.62
2017-01-25T20:14:58.161Z,968.63
2017-01-25T20:15:38.724Z,968.58
2017-01-25T20:16:19.289Z,968.62
2017-01-25T20:18:42.505Z,968.53
2017-01-25T20:19:23.281Z,968.6
2017-01-25T20:20:04.075Z,968.55
2017-01-25T20:20:44.827Z,968.53
2017-01-25T20:51:42.849Z,0
2017-01-25T21:04:03.493Z,0
2017-01-25T21:04:39.013Z,0
2017-01-25T21:06:36.593Z,0
2017-01-25T21:08:34.227Z,0
2017-01-25T21:09:09.741Z,0
2017-01-25T21:09:45.268Z,0
2017-01-25T21:10:20.791Z,0
2017-01-25T21:10:56.306Z,0
2017-01-25T21:14:22.132Z,0
2017-01-25T21:14:57.630Z,0
2017-01-25T21:15:33.155Z,0
2017-01-25T21:16:08.675Z,0
2017-01-25T21:16:44.189Z,0
2017-01-25T21:17:19.720Z,0
2017-01-25T21:17:55.253Z,0
2017-01-25T21:18:30.771Z,0
2017-01-25T21:19:06.288Z,0
2017-01-25T21:25:42.473Z,0
2017-01-25T21:26:18.195Z,0
2017-01-25T21:26:53.907Z,0
2017-01-25T21:28:46.597Z,0
2017-01-25T21:29:22.313Z,0
2017-01-25T21:40:35.363Z,0
2017-01-25T21:41:11.080Z,0
2017-01-25T21:41:46.795Z,0
2017-01-25T21:42:22.518Z,0
2017-01-25T21:42:58.252Z,0
